createdAt,value
2023-03-25T00:01:42.420Z,9.30
2023-03-25T00:04:09.936Z,9.40
2023-03-25T00:06:37.568Z,9.40
2023-03-25T00:09:05.078Z,9.30
2023-03-25T00:11:32.738Z,9.40
2023-03-25T00:14:00.445Z,9.40
2023-03-25T00:16:27.999Z,9.40
2023-03-25T00:18:55.660Z,9.40
2023-03-25T00:21:23.385Z,9.30
2023-03-25T00:23:51.075Z,9.40
2023-03-25T00:26:18.641Z,9.40
2023-03-25T00:28:46.423Z,9.50
2023-03-25T00:31:14.989Z,9.40
2023-03-25T00:33:42.889Z,9.40
2023-03-25T00:36:14.407Z,9.40
2023-03-25T00:38:43.374Z,9.50
2023-03-25T00:41:35.850Z,9.50
2023-03-25T00:44:04.552Z,9.50
2023-03-25T00:46:34.005Z,9.50
2023-03-25T00:49:01.715Z,9.50
2023-03-25T00:51:31.429Z,9.50
2023-03-25T00:54:03.473Z,9.40
2023-03-25T00:56:31.471Z,9.40
2023-03-25T00:58:59.076Z,9.40
2023-03-25T01:01:29.092Z,9.40
2023-03-25T01:04:00.175Z,9.40
2023-03-25T01:06:35.979Z,9.30
2023-03-25T01:09:07.712Z,9.20
2023-03-25T01:11:38.272Z,9.20
2023-03-25T01:14:11.284Z,9.20
2023-03-25T01:16:40.109Z,9.20
2023-03-25T01:19:07.636Z,9.20
2023-03-25T01:21:36.664Z,9.20
2023-03-25T01:24:06.009Z,9.30
2023-03-25T01:26:33.844Z,9.30
2023-03-25T01:29:02.126Z,9.30
2023-03-25T01:31:31.692Z,9.40
2023-03-25T01:34:00.579Z,9.50
2023-03-25T01:36:31.536Z,9.50
2023-03-25T01:39:01.320Z,9.50
2023-03-25T01:41:42.257Z,9.50
2023-03-25T01:44:14.205Z,9.50
2023-03-25T01:46:49.096Z,9.50
2023-03-25T01:49:31.195Z,9.50
2023-03-25T01:52:05.472Z,9.40
2023-03-25T01:54:34.216Z,9.40
2023-03-25T01:57:02.936Z,9.30
2023-03-25T01:59:30.879Z,9.40
2023-03-25T02:02:03.910Z,9.30
2023-03-25T02:04:59.666Z,9.30
2023-03-25T02:07:30.990Z,9.30
2023-03-25T02:10:06.707Z,9.20
2023-03-25T02:12:34.279Z,9.30
2023-03-25T02:15:06.159Z,9.30
2023-03-25T02:17:47.657Z,9.30
2023-03-25T02:20:30.276Z,9.30
2023-03-25T02:23:28.310Z,9.20
2023-03-25T02:26:22.088Z,9.20
2023-03-25T02:29:23.910Z,8.70
2023-03-25T02:32:12.221Z,7.70
2023-03-25T02:35:08.244Z,7.40
2023-03-25T02:38:34.148Z,7.10
2023-03-25T02:41:25.788Z,6.80
2023-03-25T02:44:21.747Z,6.60
2023-03-25T02:46:55.894Z,6.60
2023-03-25T02:49:36.193Z,6.40
2023-03-25T02:52:31.983Z,6.50
2023-03-25T02:55:04.961Z,6.50
2023-03-25T02:57:35.339Z,6.40
2023-03-25T03:00:15.784Z,6.40
2023-03-25T03:03:04.803Z,6.50
2023-03-25T03:05:43.726Z,6.40
2023-03-25T03:08:50.860Z,6.40
2023-03-25T03:11:31.134Z,6.40
2023-03-25T03:14:19.356Z,6.40
2023-03-25T03:17:08.955Z,6.40
2023-03-25T03:19:48.113Z,6.40
2023-03-25T03:23:02.024Z,6.40
2023-03-25T03:25:40.297Z,6.50
2023-03-25T03:28:22.506Z,6.40
2023-03-25T03:31:00.452Z,6.40
2023-03-25T03:33:53.355Z,6.50
2023-03-25T03:36:27.573Z,6.50
2023-03-25T03:39:10.864Z,6.50
2023-03-25T03:41:42.461Z,6.50
2023-03-25T03:44:18.538Z,6.50
2023-03-25T03:47:28.517Z,6.60
2023-03-25T03:50:04.214Z,6.70
2023-03-25T03:53:07.678Z,6.70
2023-03-25T03:55:47.163Z,6.80
2023-03-25T03:58:29.901Z,6.80
2023-03-25T04:01:30.306Z,6.90
2023-03-25T04:04:07.560Z,6.90
2023-03-25T04:06:42.025Z,7.00
2023-03-25T04:09:40.929Z,7.10
2023-03-25T04:12:23.777Z,7.20
2023-03-25T04:14:51.303Z,7.20
2023-03-25T04:17:18.963Z,7.30
2023-03-25T04:19:48.868Z,7.20
2023-03-25T04:22:18.445Z,7.30
2023-03-25T04:24:49.601Z,7.30
2023-03-25T04:27:23.031Z,7.30
2023-03-25T04:29:51.975Z,7.30
2023-03-25T04:32:19.515Z,7.30
2023-03-25T04:34:47.072Z,7.30
2023-03-25T04:37:14.744Z,7.30
2023-03-25T04:39:42.290Z,7.30
2023-03-25T04:42:13.631Z,7.40
2023-03-25T04:44:41.180Z,7.40
2023-03-25T04:47:14.822Z,7.40
2023-03-25T04:49:44.927Z,7.30
2023-03-25T04:52:12.509Z,7.40
2023-03-25T04:54:40.692Z,7.40
2023-03-25T04:57:11.423Z,7.40
2023-03-25T04:59:39.075Z,7.40
2023-03-25T05:02:13.401Z,7.40
2023-03-25T05:04:47.286Z,7.50
2023-03-25T05:07:16.456Z,7.50
2023-03-25T05:09:44.158Z,7.50
2023-03-25T05:12:11.845Z,7.50
2023-03-25T05:14:39.858Z,7.50
2023-03-25T05:17:07.358Z,7.50
2023-03-25T05:22:37.800Z,7.60
2023-03-25T05:25:07.958Z,7.60
2023-03-25T05:27:36.638Z,7.60
2023-03-25T05:30:06.535Z,7.50
2023-03-25T05:32:34.364Z,7.50
2023-03-25T05:35:04.227Z,7.60
2023-03-25T05:37:31.786Z,7.60
2023-03-25T05:39:59.428Z,7.60
2023-03-25T05:42:27.301Z,7.60
2023-03-25T05:44:54.957Z,7.60
2023-03-25T05:47:25.021Z,7.70
2023-03-25T05:49:53.967Z,7.70
2023-03-25T05:52:24.636Z,7.70
2023-03-25T05:54:52.424Z,7.80
2023-03-25T05:57:19.949Z,7.80
2023-03-25T05:59:48.076Z,7.80
2023-03-25T06:02:17.237Z,7.90
2023-03-25T06:04:46.508Z,7.90
2023-03-25T06:07:19.729Z,7.90
2023-03-25T06:09:48.146Z,7.90
2023-03-25T06:12:19.941Z,7.90
2023-03-25T06:14:53.772Z,8.00
2023-03-25T06:17:22.599Z,8.10
2023-03-25T06:19:51.727Z,8.10
2023-03-25T06:22:22.422Z,8.20
2023-03-25T06:24:50.089Z,8.20
2023-03-25T06:27:19.412Z,8.10
2023-03-25T06:29:47.768Z,8.00
2023-03-25T06:32:16.134Z,8.00
2023-03-25T06:34:44.519Z,8.10
2023-03-25T06:37:12.089Z,8.10
2023-03-25T06:39:39.657Z,8.10
2023-03-25T06:42:16.064Z,8.20
2023-03-25T06:44:56.209Z,8.30
2023-03-25T06:47:45.344Z,8.30
2023-03-25T06:50:13.008Z,8.30
2023-03-25T06:52:40.609Z,8.30
2023-03-25T06:55:08.679Z,8.30
2023-03-25T06:57:36.225Z,8.30
2023-03-25T07:00:06.805Z,8.40
2023-03-25T07:02:34.829Z,8.40
2023-03-25T07:05:27.771Z,8.40
2023-03-25T07:07:55.869Z,8.50
2023-03-25T07:10:23.491Z,8.60
2023-03-25T07:12:51.086Z,8.70
2023-03-25T07:15:18.680Z,8.90
2023-03-25T07:17:49.375Z,8.90
2023-03-25T07:20:17.340Z,8.90
2023-03-25T07:22:44.959Z,8.90
2023-03-25T07:25:12.488Z,8.90
2023-03-25T07:27:40.830Z,9.00
2023-03-25T07:30:15.744Z,9.00
2023-03-25T07:32:47.055Z,9.00
2023-03-25T07:35:14.664Z,9.00
2023-03-25T07:37:42.185Z,9.10
2023-03-25T07:40:10.371Z,9.20
2023-03-25T07:42:38.408Z,9.30
2023-03-25T07:45:21.223Z,9.40
2023-03-25T07:47:51.569Z,9.50
2023-03-25T07:50:29.811Z,9.60
2023-03-25T07:52:57.406Z,9.70
2023-03-25T07:55:24.959Z,9.60
2023-03-25T07:57:52.487Z,9.70
2023-03-25T08:00:20.559Z,9.70
2023-03-25T08:02:48.125Z,9.70
2023-03-25T08:05:21.272Z,9.70
2023-03-25T08:07:50.363Z,9.80
2023-03-25T08:10:19.301Z,9.90
2023-03-25T08:12:46.992Z,10.00
2023-03-25T08:15:14.830Z,10.00
2023-03-25T08:17:42.350Z,10.10
2023-03-25T08:20:11.342Z,10.10
2023-03-25T08:22:38.898Z,10.20
2023-03-25T08:25:07.961Z,10.10
2023-03-25T08:27:35.542Z,10.10
2023-03-25T08:30:04.980Z,10.00
2023-03-25T08:32:32.517Z,10.00
2023-03-25T08:35:00.377Z,10.00
2023-03-25T08:37:27.985Z,10.10
2023-03-25T08:39:56.073Z,10.20
2023-03-25T08:42:23.619Z,10.20
2023-03-25T08:44:51.315Z,10.10
2023-03-25T08:47:18.884Z,10.10
2023-03-25T08:49:46.437Z,10.00
2023-03-25T08:52:13.981Z,9.90
2023-03-25T08:54:41.506Z,9.80
2023-03-25T08:57:09.101Z,9.80
2023-03-25T08:59:36.697Z,9.70
2023-03-25T09:02:04.402Z,9.70
2023-03-25T09:04:31.914Z,9.70
2023-03-25T09:07:11.970Z,9.70
2023-03-25T09:09:43.096Z,9.80
2023-03-25T09:12:10.840Z,9.70
2023-03-25T09:14:38.507Z,9.70
2023-03-25T09:17:06.320Z,9.80
2023-03-25T09:19:35.332Z,9.80
2023-03-25T09:22:02.976Z,9.80
2023-03-25T09:24:33.913Z,9.80
2023-03-25T09:27:03.010Z,9.90
2023-03-25T09:29:30.742Z,10.00
2023-03-25T09:31:59.687Z,10.20
2023-03-25T09:34:28.560Z,10.10
2023-03-25T09:36:56.423Z,10.20
2023-03-25T09:39:23.992Z,10.30
2023-03-25T09:42:26.851Z,10.50
2023-03-25T09:45:41.845Z,10.40
2023-03-25T09:48:28.626Z,10.40
2023-03-25T09:51:02.693Z,10.40
2023-03-25T09:53:59.374Z,10.40
2023-03-25T09:56:31.236Z,10.60
2023-03-25T09:59:07.415Z,10.70
2023-03-25T10:02:04.543Z,10.70
2023-03-25T10:05:06.389Z,10.70
2023-03-25T10:07:37.151Z,10.60
2023-03-25T10:10:31.614Z,10.50
2023-03-25T10:13:14.995Z,10.30
2023-03-25T10:16:07.152Z,10.20
2023-03-25T10:19:07.915Z,10.20
2023-03-25T10:22:01.222Z,10.10
2023-03-25T10:24:32.877Z,10.20
2023-03-25T10:27:31.446Z,10.00
2023-03-25T10:30:32.816Z,9.90
2023-03-25T10:33:05.875Z,9.70
2023-03-25T10:35:42.653Z,9.50
2023-03-25T10:38:24.175Z,9.50
2023-03-25T10:41:19.878Z,9.60
2023-03-25T10:43:47.484Z,9.70
2023-03-25T10:46:34.430Z,9.70
2023-03-25T10:49:01.932Z,9.70
2023-03-25T10:51:33.952Z,9.60
2023-03-25T10:54:01.669Z,9.50
2023-03-25T10:56:42.767Z,9.50
2023-03-25T10:59:34.712Z,9.60
2023-03-25T11:02:14.027Z,9.70
2023-03-25T11:04:44.264Z,9.70
2023-03-25T11:07:36.075Z,9.80
2023-03-25T11:10:28.373Z,9.90
2023-03-25T11:12:58.724Z,10.10
2023-03-25T11:15:38.067Z,10.30
2023-03-25T11:18:16.108Z,10.40
2023-03-25T11:20:51.437Z,10.50
2023-03-25T11:23:33.971Z,10.60
2023-03-25T11:26:21.599Z,10.60
2023-03-25T11:28:54.135Z,10.60
2023-03-25T11:31:27.701Z,10.50
2023-03-25T11:34:21.079Z,10.60
2023-03-25T11:36:55.103Z,10.70
2023-03-25T11:39:41.080Z,10.70
2023-03-25T11:42:19.318Z,10.90
2023-03-25T11:44:56.134Z,10.80
2023-03-25T11:47:31.891Z,10.70
2023-03-25T11:50:00.971Z,10.70
2023-03-25T11:52:44.370Z,10.70
2023-03-25T11:55:26.599Z,10.80
2023-03-25T11:57:57.508Z,10.90
2023-03-25T12:00:25.068Z,11.10
2023-03-25T12:03:15.928Z,11.20
2023-03-25T12:06:11.855Z,11.10
2023-03-25T12:09:12.924Z,11.00
2023-03-25T12:12:05.977Z,10.90
2023-03-25T12:14:48.801Z,10.80
2023-03-25T12:17:21.969Z,10.90
2023-03-25T12:20:34.300Z,11.00
2023-03-25T12:23:04.548Z,11.20
2023-03-25T12:26:06.673Z,11.40
2023-03-25T12:29:09.241Z,11.40
2023-03-25T12:32:02.009Z,11.40
2023-03-25T12:34:56.678Z,11.20
2023-03-25T12:38:07.709Z,10.90
2023-03-25T12:40:59.700Z,10.20
2023-03-25T12:43:57.890Z,10.00
2023-03-25T12:46:39.286Z,10.00
2023-03-25T12:49:19.065Z,10.20
2023-03-25T12:52:19.940Z,10.50
2023-03-25T12:55:25.539Z,10.70
2023-03-25T12:58:57.137Z,11.00
2023-03-25T13:02:09.851Z,11.00
2023-03-25T13:05:14.550Z,11.30
2023-03-25T13:08:01.133Z,11.40
2023-03-25T13:10:34.791Z,11.50
2023-03-25T13:13:25.711Z,11.60
2023-03-25T13:16:07.979Z,11.80
2023-03-25T13:18:40.667Z,12.10
2023-03-25T13:21:21.529Z,12.10
2023-03-25T13:24:00.054Z,12.30
2023-03-25T13:26:31.106Z,12.40
2023-03-25T13:29:05.473Z,12.60
2023-03-25T13:31:37.397Z,12.50
2023-03-25T13:35:06.181Z,12.60
2023-03-25T13:37:42.202Z,12.60
2023-03-25T13:40:51.297Z,12.60
2023-03-25T13:43:32.064Z,12.60
2023-03-25T13:46:36.928Z,12.60
2023-03-25T13:49:16.922Z,12.70
2023-03-25T13:51:45.498Z,12.80
2023-03-25T13:54:34.744Z,13.00
2023-03-25T13:57:24.409Z,12.80
2023-03-25T14:00:14.499Z,12.70
2023-03-25T14:03:27.349Z,12.50
2023-03-25T14:06:29.468Z,12.10
2023-03-25T14:09:35.264Z,11.40
2023-03-25T14:12:21.271Z,11.00
2023-03-25T14:14:58.270Z,10.90
2023-03-25T14:17:28.342Z,11.00
2023-03-25T14:19:59.498Z,11.20
2023-03-25T14:22:31.890Z,11.50
2023-03-25T14:25:00.845Z,11.70
2023-03-25T14:27:37.505Z,11.80
2023-03-25T14:30:21.456Z,12.00
2023-03-25T14:32:49.772Z,12.00
2023-03-25T14:35:35.089Z,12.20
2023-03-25T14:38:08.624Z,12.40
2023-03-25T14:40:58.946Z,12.60
2023-03-25T14:43:46.707Z,12.60
2023-03-25T14:46:19.285Z,12.90
2023-03-25T14:49:05.679Z,12.90
2023-03-25T14:51:34.903Z,13.10
2023-03-25T14:54:30.329Z,13.30
2023-03-25T14:57:15.933Z,13.40
2023-03-25T15:00:17.371Z,12.90
2023-03-25T15:02:58.451Z,13.10
2023-03-25T15:05:29.668Z,13.10
2023-03-25T15:08:13.998Z,13.20
2023-03-25T15:10:51.062Z,13.40
2023-03-25T15:13:34.595Z,13.40
2023-03-25T15:16:33.173Z,13.50
2023-03-25T15:19:20.675Z,13.70
2023-03-25T15:21:57.195Z,13.60
2023-03-25T15:24:37.937Z,13.70
2023-03-25T15:27:35.778Z,13.70
2023-03-25T15:30:12.646Z,13.90
2023-03-25T15:33:26.330Z,13.70
2023-03-25T15:36:28.012Z,13.70
2023-03-25T15:39:31.930Z,13.70
2023-03-25T15:42:28.962Z,13.70
2023-03-25T15:45:37.830Z,13.70
2023-03-25T15:48:22.712Z,13.70
2023-03-25T15:51:16.516Z,13.80
2023-03-25T15:54:14.252Z,13.90
2023-03-25T15:56:46.853Z,13.90
2023-03-25T15:59:31.717Z,13.80
2023-03-25T16:02:03.222Z,13.60
2023-03-25T16:04:44.177Z,13.60
2023-03-25T16:07:15.483Z,13.70
2023-03-25T16:09:49.109Z,13.70
2023-03-25T16:12:25.669Z,13.60
2023-03-25T16:14:53.275Z,13.40
2023-03-25T16:17:25.445Z,13.40
2023-03-25T16:19:55.909Z,13.40
2023-03-25T16:22:34.651Z,13.30
2023-03-25T16:25:08.094Z,13.20
2023-03-25T16:27:42.247Z,13.00
2023-03-25T16:30:25.323Z,12.90
2023-03-25T16:32:53.527Z,12.70
2023-03-25T16:35:26.705Z,12.60
2023-03-25T16:37:57.962Z,12.60
2023-03-25T16:40:43.360Z,12.50
2023-03-25T16:43:22.046Z,12.50
2023-03-25T16:45:52.948Z,12.60
2023-03-25T16:48:48.985Z,12.50
2023-03-25T16:51:22.845Z,12.40
2023-03-25T16:53:56.099Z,12.40
2023-03-25T16:56:30.860Z,12.30
2023-03-25T16:59:33.393Z,12.30
2023-03-25T17:02:03.387Z,12.20
2023-03-25T17:04:41.870Z,12.20
2023-03-25T17:07:26.606Z,12.10
2023-03-25T17:09:59.665Z,12.10
2023-03-25T17:12:29.119Z,12.10
2023-03-25T17:15:06.797Z,12.00
2023-03-25T17:17:41.520Z,11.90
2023-03-25T17:20:27.367Z,11.80
2023-03-25T17:23:18.018Z,11.90
2023-03-25T17:25:58.489Z,11.90
2023-03-25T17:29:01.864Z,11.80
2023-03-25T17:31:38.164Z,11.70
2023-03-25T17:34:14.657Z,11.70
2023-03-25T17:36:46.909Z,11.70
2023-03-25T17:39:26.224Z,11.70
2023-03-25T17:42:08.205Z,11.60
2023-03-25T17:44:39.301Z,11.50
2023-03-25T17:47:15.698Z,11.50
2023-03-25T17:49:43.506Z,11.40
2023-03-25T17:52:11.294Z,11.40
2023-03-25T17:54:38.776Z,11.40
2023-03-25T17:57:18.305Z,11.50
2023-03-25T17:59:47.133Z,11.50
2023-03-25T18:02:17.044Z,11.40
2023-03-25T18:04:44.777Z,11.30
2023-03-25T18:07:12.331Z,11.30
2023-03-25T18:09:41.283Z,11.30
2023-03-25T18:12:11.016Z,11.20
2023-03-25T18:14:38.585Z,11.20
2023-03-25T18:17:06.294Z,11.20
2023-03-25T18:19:34.484Z,11.20
2023-03-25T18:22:09.960Z,11.20
2023-03-25T18:24:46.909Z,11.10
2023-03-25T18:27:14.713Z,11.10
2023-03-25T18:29:42.293Z,11.00
2023-03-25T18:32:09.945Z,11.10
2023-03-25T18:34:37.473Z,11.10
2023-03-25T18:37:04.969Z,11.00
2023-03-25T18:39:32.663Z,10.90
2023-03-25T18:42:00.516Z,11.00
2023-03-25T18:44:30.542Z,11.10
2023-03-25T18:46:58.204Z,11.00
2023-03-25T18:49:27.594Z,10.90
2023-03-25T18:51:56.832Z,10.90
2023-03-25T18:54:24.380Z,11.00
2023-03-25T18:56:52.056Z,11.00
2023-03-25T18:59:20.651Z,11.00
2023-03-25T19:01:48.243Z,10.90
2023-03-25T19:04:16.343Z,10.90
2023-03-25T19:06:44.208Z,10.90
2023-03-25T19:09:22.637Z,10.80
2023-03-25T19:11:50.230Z,10.80
2023-03-25T19:14:17.739Z,10.80
2023-03-25T19:16:57.345Z,10.80
2023-03-25T19:19:29.121Z,10.90
2023-03-25T19:21:56.655Z,10.90
2023-03-25T19:24:24.164Z,10.80
2023-03-25T19:26:51.735Z,10.80
2023-03-25T19:29:19.228Z,10.80
2023-03-25T19:31:46.848Z,10.70
2023-03-25T19:34:14.392Z,10.60
2023-03-25T19:36:41.891Z,10.50
2023-03-25T19:39:10.649Z,10.40
2023-03-25T19:41:42.610Z,10.40
2023-03-25T19:44:10.277Z,10.40
2023-03-25T19:46:37.982Z,10.30
2023-03-25T19:49:05.831Z,10.20
2023-03-25T19:51:33.320Z,10.20
2023-03-25T19:54:00.856Z,10.20
2023-03-25T19:56:28.384Z,10.20
2023-03-25T19:58:55.899Z,10.20
2023-03-25T20:01:24.242Z,10.20
2023-03-25T20:03:52.456Z,10.10
2023-03-25T20:06:20.687Z,10.20
2023-03-25T20:08:48.237Z,10.10
2023-03-25T20:11:15.823Z,10.10
2023-03-25T20:13:43.450Z,10.20
2023-03-25T20:16:11.697Z,10.20
2023-03-25T20:18:41.182Z,10.10
2023-03-25T20:21:09.964Z,10.10
2023-03-25T20:23:37.571Z,10.10
2023-03-25T20:26:05.880Z,10.10
2023-03-25T20:28:33.424Z,10.00
2023-03-25T20:31:01.025Z,10.00
2023-03-25T20:33:28.597Z,10.00
2023-03-25T20:35:56.274Z,10.00
2023-03-25T20:38:23.797Z,10.00
2023-03-25T20:40:54.504Z,10.10
2023-03-25T20:43:22.048Z,10.10
2023-03-25T20:45:54.195Z,10.10
2023-03-25T20:48:22.876Z,10.00
2023-03-25T20:51:04.437Z,10.10
2023-03-25T20:53:33.045Z,10.00
2023-03-25T20:56:01.185Z,10.00
2023-03-25T20:58:30.016Z,10.00
2023-03-25T21:00:59.018Z,10.00
2023-03-25T21:03:27.876Z,10.00
2023-03-25T21:06:10.348Z,10.00
2023-03-25T21:08:38.542Z,10.00
2023-03-25T21:11:07.089Z,10.00
2023-03-25T21:13:34.944Z,10.00
2023-03-25T21:16:02.788Z,10.00
2023-03-25T21:18:30.712Z,10.00
2023-03-25T21:21:01.347Z,10.00
2023-03-25T21:23:31.728Z,10.10
2023-03-25T21:26:04.288Z,10.00
2023-03-25T21:28:32.133Z,10.10
2023-03-25T21:31:08.907Z,10.10
2023-03-25T21:33:37.945Z,10.10
2023-03-25T21:36:08.640Z,10.10
2023-03-25T21:38:36.649Z,10.10
2023-03-25T21:41:06.945Z,10.00
2023-03-25T21:43:39.574Z,9.90
2023-03-25T21:46:07.304Z,9.80
2023-03-25T21:48:38.091Z,9.70
2023-03-25T21:51:12.124Z,9.60
2023-03-25T21:53:44.704Z,9.40
2023-03-25T21:56:20.007Z,9.40
2023-03-25T21:58:48.654Z,9.40
2023-03-25T22:01:23.043Z,9.40
2023-03-25T22:03:55.108Z,9.30
2023-03-25T22:06:27.012Z,9.20
2023-03-25T22:08:56.947Z,9.00
2023-03-25T22:11:31.159Z,8.90
2023-03-25T22:13:58.742Z,8.80
2023-03-25T22:16:26.781Z,8.70
2023-03-25T22:18:54.280Z,8.70
2023-03-25T22:21:26.002Z,8.60
2023-03-25T22:23:55.990Z,8.50
2023-03-25T22:26:25.524Z,8.30
2023-03-25T22:29:01.024Z,8.30
2023-03-25T22:31:32.568Z,8.20
2023-03-25T22:34:04.079Z,8.20
2023-03-25T22:36:33.936Z,8.20
2023-03-25T22:39:02.797Z,8.20
2023-03-25T22:41:31.147Z,8.20
2023-03-25T22:43:58.998Z,8.30
2023-03-25T22:46:26.570Z,8.30
2023-03-25T22:48:54.092Z,8.40
2023-03-25T22:51:21.995Z,8.40
2023-03-25T22:53:49.581Z,8.40
2023-03-25T22:56:17.195Z,8.50
2023-03-25T22:58:44.689Z,8.40
2023-03-25T23:01:38.682Z,8.50
2023-03-25T23:04:06.861Z,8.50
2023-03-25T23:06:36.247Z,8.50
2023-03-25T23:09:08.080Z,8.50
2023-03-25T23:11:36.825Z,8.50
2023-03-25T23:14:13.185Z,8.50
2023-03-25T23:16:41.834Z,8.50
2023-03-25T23:19:09.975Z,8.50
2023-03-25T23:21:38.380Z,8.50
2023-03-25T23:24:06.782Z,8.50
2023-03-25T23:26:40.822Z,8.50
2023-03-25T23:29:11.477Z,8.50
2023-03-25T23:31:43.266Z,8.40
2023-03-25T23:34:16.062Z,8.30
2023-03-25T23:36:45.265Z,8.30
2023-03-25T23:39:17.019Z,8.30
2023-03-25T23:41:44.591Z,8.20
2023-03-25T23:44:13.053Z,8.20
2023-03-25T23:46:41.896Z,8.10
2023-03-25T23:49:10.751Z,8.20
2023-03-25T23:51:41.468Z,8.20
2023-03-25T23:54:12.897Z,8.20
2023-03-25T23:56:42.121Z,8.20
2023-03-25T23:59:11.598Z,8.20
